Time;durP1;ratioP1;P1;durP2;ratioP2;P2;SDS_P1;SDS_P2;PMS_P1;PMS_P2;Temp;Humidity;BMP_temperature;BMP_pressure;BME280_temperature;BME280_humidity;BME280_pressure;Samples;Min_cycle;Max_cycle;Signal;HPM_P1;HPM_P2
2022/09/17 00:02:21;;;;;;;18.70;3.40;;;11.30;99.90;;;;;;5045897;28;20882;-76
2022/09/17 00:04:48;;;;;;;17.92;2.92;;;11.20;99.90;;;;;;5033146;28;20048;-75
2022/09/17 00:07:14;;;;;;;15.02;2.10;;;11.40;99.90;;;;;;5039583;28;20041;-75
2022/09/17 00:09:40;;;;;;;25.70;4.05;;;11.10;99.90;;;;;;5040371;28;20045;-76
2022/09/17 00:12:06;;;;;;;8.93;2.65;;;11.10;99.90;;;;;;5033451;28;20094;-76
2022/09/17 00:14:32;;;;;;;18.23;2.85;;;11.20;99.90;;;;;;5033009;28;20033;-76
2022/09/17 00:16:57;;;;;;;11.38;2.70;;;11.20;99.90;;;;;;5042835;28;20081;-75
2022/09/17 00:19:24;;;;;;;14.25;3.40;;;11.10;99.90;;;;;;5034293;28;20041;-76
2022/09/17 00:21:50;;;;;;;20.70;4.40;;;11.00;99.90;;;;;;5044583;28;20049;-76
2022/09/17 00:24:17;;;;;;;14.75;2.92;;;11.10;99.90;;;;;;5029756;28;20104;-76
2022/09/17 00:26:42;;;;;;;16.48;3.78;;;11.10;99.90;;;;;;5027636;28;20048;-76
2022/09/17 00:29:09;;;;;;;17.50;3.42;;;11.00;99.90;;;;;;5030416;28;20038;-76
2022/09/17 00:31:36;;;;;;;17.45;3.63;;;11.00;99.90;;;;;;5031506;28;20515;-76
2022/09/17 00:34:03;;;;;;;10.65;2.47;;;11.00;99.90;;;;;;5029404;28;20450;-76
2022/09/17 00:36:29;;;;;;;15.85;2.60;;;11.00;99.90;;;;;;5041887;28;20892;-76
2022/09/17 00:38:57;;;;;;;12.55;3.33;;;10.90;99.90;;;;;;5031283;28;20041;-76
2022/09/17 00:41:28;;;;;;;13.50;2.97;;;11.00;99.90;;;;;;5043354;28;20080;-76
2022/09/17 00:43:56;;;;;;;14.35;2.80;;;10.90;99.90;;;;;;5033114;28;20049;-76
2022/09/17 00:46:40;;;;;;;20.58;5.05;;;11.00;99.90;;;;;;5029156;28;20060;-76
2022/09/17 00:49:16;;;;;;;26.88;3.72;;;10.90;99.90;;;;;;5039201;28;20152;-76
2022/09/17 00:51:52;;;;;;;16.42;3.67;;;10.90;99.90;;;;;;5024894;28;20050;-75
2022/09/17 00:54:18;;;;;;;28.15;3.95;;;11.00;99.90;;;;;;5028395;28;20120;-76
2022/09/17 00:56:43;;;;;;;10.75;2.63;;;10.90;99.90;;;;;;5045931;28;20675;-77
2022/09/17 00:59:09;;;;;;;24.65;3.78;;;11.00;99.90;;;;;;5031398;28;20073;-76
2022/09/17 01:01:35;;;;;;;14.18;2.08;;;11.10;99.90;;;;;;5026815;28;20048;-76
2022/09/17 01:04:02;;;;;;;12.32;3.28;;;11.10;99.90;;;;;;5036095;28;20042;-76
2022/09/17 01:06:52;;;;;;;11.35;3.00;;;11.10;99.90;;;;;;5032886;28;20053;-77
2022/09/17 01:09:21;;;;;;;;;;;10.90;99.90;;;;;;5025128;28;20057;-76
2022/09/17 01:12:12;;;;;;;21.55;5.15;;;10.90;99.90;;;;;;5030806;28;19921;-75
2022/09/17 01:15:09;;;;;;;17.20;2.80;;;10.70;99.90;;;;;;5021506;28;20483;-75
2022/09/17 01:17:53;;;;;;;12.77;2.28;;;10.90;99.90;;;;;;5025810;28;20065;-76
2022/09/17 01:20:42;;;;;;;10.38;1.35;;;10.70;99.90;;;;;;5028324;28;20049;-75
2022/09/17 01:23:14;;;;;;;13.68;2.95;;;10.50;99.90;;;;;;5023853;28;20584;-77
2022/09/17 01:25:51;;;;;;;15.82;2.38;;;10.70;99.90;;;;;;5026572;28;20195;-75
2022/09/17 01:28:31;;;;;;;12.80;1.80;;;10.40;99.90;;;;;;5023862;28;20061;-78
2022/09/17 01:31:17;;;;;;;25.48;2.53;;;10.60;99.90;;;;;;5023812;28;20075;-75
2022/09/17 01:33:57;;;;;;;14.15;2.72;;;10.70;99.90;;;;;;5034533;28;20076;-75
2022/09/17 01:36:45;;;;;;;22.95;3.70;;;10.70;99.90;;;;;;5033800;28;20045;-74
2022/09/17 01:39:26;;;;;;;21.95;4.32;;;10.90;99.90;;;;;;5032621;28;20052;-76
2022/09/17 01:42:05;;;;;;;51.85;5.45;;;10.80;99.90;;;;;;5030164;28;21006;-75
2022/09/17 01:44:52;;;;;;;17.33;3.97;;;10.60;99.90;;;;;;5026047;28;20564;-75
2022/09/17 01:47:27;;;;;;;18.90;2.25;;;10.80;99.90;;;;;;5023539;28;20042;-75
2022/09/17 01:50:00;;;;;;;16.45;2.63;;;10.60;99.90;;;;;;5035598;28;20095;-75
2022/09/17 01:52:27;;;;;;;24.75;3.15;;;10.70;99.90;;;;;;5039406;28;20836;-76
2022/09/17 01:54:59;;;;;;;22.95;4.22;;;10.90;99.90;;;;;;5036214;28;20555;-76
2022/09/17 01:57:32;;;;;;;12.77;1.95;;;10.90;99.90;;;;;;5032050;28;20060;-76
2022/09/17 02:00:03;;;;;;;14.65;3.63;;;11.00;99.90;;;;;;5040152;28;20088;-76
2022/09/17 02:02:37;;;;;;;11.23;2.67;;;10.90;99.90;;;;;;5024541;28;20045;-75
2022/09/17 02:05:11;;;;;;;16.23;3.05;;;10.90;99.90;;;;;;5031405;28;20535;-76
2022/09/17 02:07:43;;;;;;;19.77;4.00;;;10.90;99.90;;;;;;5043844;28;20060;-76
2022/09/17 02:10:15;;;;;;;19.92;3.85;;;10.90;99.90;;;;;;5041074;28;20038;-76
2022/09/17 02:12:55;;;;;;;16.45;2.97;;;10.80;99.90;;;;;;5021543;28;20080;-76
2022/09/17 02:15:31;;;;;;;27.30;4.75;;;10.80;99.90;;;;;;5022886;28;20041;-76
2022/09/17 02:18:10;;;;;;;12.10;3.00;;;10.90;99.90;;;;;;5028175;28;20040;-77
2022/09/17 02:20:47;;;;;;;10.32;2.17;;;10.80;99.90;;;;;;5037669;28;20423;-76
2022/09/17 02:23:24;;;;;;;13.73;2.17;;;10.90;99.90;;;;;;5026190;28;20066;-76
2022/09/17 02:26:04;;;;;;;11.38;1.85;;;10.90;99.90;;;;;;5035192;28;20049;-76
2022/09/17 02:28:39;;;;;;;;;;;10.70;99.90;;;;;;5033141;28;20045;-76
2022/09/17 02:31:05;;;;;;;13.55;2.30;;;10.50;99.90;;;;;;5033809;28;19917;-76
2022/09/17 02:33:33;;;;;;;11.30;2.30;;;10.60;99.90;;;;;;5028226;28;20064;-75
2022/09/17 02:36:00;;;;;;;9.75;2.60;;;10.50;99.90;;;;;;5033646;28;20124;-75
2022/09/17 02:38:28;;;;;;;15.80;3.75;;;10.40;99.90;;;;;;5044011;28;20388;-76
2022/09/17 02:41:10;;;;;;;15.25;3.60;;;10.20;99.90;;;;;;5034525;28;20044;-75
2022/09/17 02:43:45;;;;;;;15.55;3.67;;;10.10;99.90;;;;;;5028053;28;20053;-76
2022/09/17 02:46:19;;;;;;;17.10;3.70;;;10.20;99.90;;;;;;5024870;28;20407;-76
2022/09/17 02:49:24;;;;;;;26.45;5.40;;;10.30;99.90;;;;;;5027184;28;20583;-76
2022/09/17 02:52:06;;;;;;;14.60;5.28;;;10.20;99.90;;;;;;5040104;28;20045;-76
2022/09/17 02:54:56;;;;;;;14.98;4.47;;;10.30;99.90;;;;;;5021637;28;20050;-76
2022/09/17 02:57:28;;;;;;;;;;;10.20;99.90;;;;;;5030792;28;20084;-75
2022/09/17 02:59:57;;;;;;;25.40;3.28;;;10.10;99.90;;;;;;5035541;28;19920;-75
2022/09/17 03:02:39;;;;;;;8.18;2.05;;;10.10;99.90;;;;;;5048485;28;20077;-76
2022/09/17 03:05:07;;;;;;;11.38;1.98;;;10.30;99.90;;;;;;5035849;28;20037;-76
2022/09/17 03:07:32;;;;;;;17.58;2.70;;;10.30;99.90;;;;;;5045293;28;20111;-76
2022/09/17 03:09:59;;;;;;;14.43;2.53;;;10.30;99.90;;;;;;5036702;28;20037;-75
2022/09/17 03:12:25;;;;;;;27.10;4.00;;;10.30;99.90;;;;;;5024500;28;20057;-75
2022/09/17 03:14:51;;;;;;;13.27;2.60;;;10.30;99.90;;;;;;5025579;28;20439;-75
2022/09/17 03:17:17;;;;;;;18.90;4.55;;;10.20;99.90;;;;;;5028016;28;20044;-75
2022/09/17 03:19:43;;;;;;;16.20;3.50;;;10.30;99.90;;;;;;5034446;28;20037;-76
2022/09/17 03:22:08;;;;;;;14.43;1.92;;;10.20;99.90;;;;;;5048317;28;20128;-75
2022/09/17 03:24:34;;;;;;;14.27;3.30;;;10.40;99.90;;;;;;5029754;28;20124;-75
2022/09/17 03:27:00;;;;;;;15.05;2.33;;;10.30;99.90;;;;;;5028534;28;20049;-76
2022/09/17 03:29:25;;;;;;;25.85;4.38;;;10.40;99.90;;;;;;5046531;28;20041;-75
2022/09/17 03:31:51;;;;;;;5.97;1.50;;;10.40;99.90;;;;;;5036049;28;20396;-75
2022/09/17 03:34:17;;;;;;;17.02;3.38;;;10.60;99.90;;;;;;5021648;28;20072;-77
2022/09/17 03:36:42;;;;;;;16.92;4.25;;;10.80;99.90;;;;;;5043227;28;20097;-75
2022/09/17 03:39:08;;;;;;;9.68;2.55;;;10.70;99.90;;;;;;5047799;28;20064;-75
2022/09/17 03:41:33;;;;;;;11.95;2.78;;;10.60;99.90;;;;;;5037323;28;20909;-76
2022/09/17 03:43:59;;;;;;;21.92;2.65;;;10.50;99.90;;;;;;5030304;28;20687;-76
2022/09/17 03:46:25;;;;;;;25.23;4.47;;;10.50;99.90;;;;;;5043421;28;20052;-75
2022/09/17 03:48:50;;;;;;;21.92;4.10;;;10.40;99.90;;;;;;5048567;28;20174;-76
2022/09/17 03:51:16;;;;;;;13.30;2.28;;;10.40;99.90;;;;;;5029526;28;20443;-75
2022/09/17 03:53:42;;;;;;;25.02;4.57;;;10.30;99.90;;;;;;5025199;28;20064;-75
2022/09/17 03:56:07;;;;;;;11.60;1.73;;;10.30;99.90;;;;;;5045447;28;20037;-76
2022/09/17 03:58:34;;;;;;;8.77;2.17;;;10.40;99.90;;;;;;5034242;28;20094;-75
2022/09/17 04:01:02;;;;;;;8.27;2.00;;;10.30;99.90;;;;;;5043127;28;20037;-76
2022/09/17 04:03:27;;;;;;;15.85;2.80;;;10.30;99.90;;;;;;5025160;28;20053;-75
2022/09/17 04:05:54;;;;;;;12.68;2.55;;;10.50;99.90;;;;;;5028295;28;20698;-76
2022/09/17 04:08:20;;;;;;;6.18;1.90;;;10.50;99.90;;;;;;5034141;28;20116;-76
2022/09/17 04:10:46;;;;;;;8.93;2.95;;;10.40;99.90;;;;;;5041348;28;20618;-75
2022/09/17 04:13:14;;;;;;;8.80;2.58;;;10.60;99.90;;;;;;5037871;28;20139;-76
2022/09/17 04:15:40;;;;;;;8.70;1.83;;;10.60;99.90;;;;;;5029297;28;20073;-76
2022/09/17 04:18:06;;;;;;;9.07;1.58;;;10.60;99.90;;;;;;5027839;28;20045;-76
2022/09/17 04:20:32;;;;;;;9.38;2.50;;;10.50;99.90;;;;;;5032800;28;20598;-75
2022/09/17 04:22:58;;;;;;;12.82;2.75;;;10.50;99.90;;;;;;5039283;28;20087;-75
2022/09/17 04:25:23;;;;;;;8.77;2.95;;;10.50;99.90;;;;;;5030843;28;20081;-74
2022/09/17 04:27:49;;;;;;;13.32;1.98;;;10.60;99.90;;;;;;5041502;28;20108;-75
2022/09/17 04:30:15;;;;;;;22.92;3.70;;;10.60;99.90;;;;;;5044810;28;20128;-75
2022/09/17 04:32:43;;;;;;;15.23;2.45;;;10.60;99.90;;;;;;5047224;28;20044;-77
2022/09/17 04:35:08;;;;;;;16.92;3.55;;;10.60;99.90;;;;;;5033525;28;20036;-76
2022/09/17 04:37:34;;;;;;;11.25;2.53;;;10.60;99.90;;;;;;5022968;28;20370;-76
2022/09/17 04:40:00;;;;;;;11.80;2.03;;;10.50;99.90;;;;;;5037857;28;20458;-76
2022/09/17 04:42:25;;;;;;;11.15;2.13;;;10.50;99.90;;;;;;5025616;28;20064;-76
2022/09/17 04:44:51;;;;;;;16.10;3.88;;;10.50;99.90;;;;;;5027824;28;20378;-75
2022/09/17 04:47:17;;;;;;;11.18;1.98;;;10.50;99.90;;;;;;5025545;28;20064;-76
2022/09/17 04:49:42;;;;;;;14.00;3.50;;;10.50;99.90;;;;;;5026751;28;20128;-75
2022/09/17 04:52:08;;;;;;;11.98;1.48;;;10.50;99.90;;;;;;5028329;28;20111;-76
2022/09/17 04:54:34;;;;;;;9.90;2.38;;;10.40;99.90;;;;;;5031359;28;20072;-76
2022/09/17 04:57:00;;;;;;;12.45;2.05;;;10.40;99.90;;;;;;5041475;28;20049;-74
2022/09/17 04:59:25;;;;;;;7.72;1.42;;;10.50;99.90;;;;;;5038739;28;20131;-77
2022/09/17 05:01:51;;;;;;;10.52;2.47;;;10.50;99.90;;;;;;5032601;28;20077;-78
2022/09/17 05:04:17;;;;;;;12.85;2.30;;;10.50;99.90;;;;;;5024094;28;20041;-76
2022/09/17 05:06:42;;;;;;;9.05;2.40;;;10.60;99.90;;;;;;5033676;28;20052;-74
2022/09/17 05:09:08;;;;;;;21.25;3.58;;;10.50;99.90;;;;;;5022414;28;20095;-75
2022/09/17 05:11:34;;;;;;;23.23;4.25;;;10.50;99.90;;;;;;5035947;28;20048;-75
2022/09/17 05:14:00;;;;;;;15.43;3.33;;;10.30;99.90;;;;;;5032111;28;20056;-75
2022/09/17 05:16:25;;;;;;;17.98;1.88;;;10.20;99.90;;;;;;5037864;28;20504;-74
2022/09/17 05:18:51;;;;;;;9.90;2.55;;;10.30;99.90;;;;;;5036996;28;20103;-75
2022/09/17 05:21:18;;;;;;;15.77;2.75;;;10.20;99.90;;;;;;5038182;28;20469;-75
2022/09/17 05:23:43;;;;;;;18.27;3.90;;;10.00;99.90;;;;;;5022386;28;20041;-75
2022/09/17 05:26:09;;;;;;;18.90;2.75;;;10.10;99.90;;;;;;5033040;28;20029;-75
2022/09/17 05:28:35;;;;;;;11.88;3.33;;;10.00;99.90;;;;;;5042378;28;20171;-74
2022/09/17 05:31:01;;;;;;;23.17;4.07;;;10.00;99.90;;;;;;5031337;28;20083;-74
2022/09/17 05:33:27;;;;;;;3.67;0.88;;;9.90;99.90;;;;;;5019957;28;20045;-75
2022/09/17 05:35:53;;;;;;;8.27;1.17;;;9.90;99.90;;;;;;5023000;28;20037;-75
2022/09/17 05:38:19;;;;;;;6.22;1.58;;;9.90;99.90;;;;;;5025820;28;20045;-73
2022/09/17 05:40:45;;;;;;;19.35;3.17;;;10.00;99.90;;;;;;5029663;28;20491;-73
2022/09/17 05:43:11;;;;;;;16.15;2.15;;;10.00;99.90;;;;;;5029130;28;20044;-75
2022/09/17 05:45:37;;;;;;;7.68;2.05;;;10.10;99.90;;;;;;5042542;28;20053;-75
2022/09/17 05:48:05;;;;;;;4.68;1.15;;;10.10;99.90;;;;;;5026678;28;20052;-74
2022/09/17 05:50:31;;;;;;;11.02;1.20;;;10.10;99.90;;;;;;5023809;28;20041;-74
2022/09/17 05:53:06;;;;;;;32.45;3.60;;;10.00;99.90;;;;;;5023560;28;20050;-74
2022/09/17 05:55:32;;;;;;;7.95;1.80;;;10.00;99.90;;;;;;5027413;28;20073;-74
2022/09/17 05:57:58;;;;;;;10.57;1.13;;;10.10;99.90;;;;;;5041056;28;20091;-75
2022/09/17 06:00:23;;;;;;;12.90;2.45;;;10.00;99.90;;;;;;5016593;28;20415;-74
2022/09/17 06:02:56;;;;;;;11.13;2.10;;;10.00;99.90;;;;;;5034639;28;20087;-74
2022/09/17 06:05:23;;;;;;;8.32;2.05;;;10.00;99.90;;;;;;5028565;28;20399;-75
2022/09/17 06:07:49;;;;;;;7.75;2.03;;;9.90;99.90;;;;;;5033456;28;20049;-75
2022/09/17 06:10:15;;;;;;;13.23;1.70;;;10.00;99.90;;;;;;5024040;28;20387;-75
2022/09/17 06:12:40;;;;;;;12.27;2.17;;;10.10;99.90;;;;;;5033696;28;20140;-74
2022/09/17 06:15:06;;;;;;;12.88;2.42;;;10.20;99.90;;;;;;5031644;28;20441;-76
2022/09/17 06:17:34;;;;;;;13.65;1.23;;;10.10;99.90;;;;;;5037983;28;20043;-75
2022/09/17 06:19:59;;;;;;;10.20;2.25;;;10.30;99.90;;;;;;5026605;28;20604;-76
2022/09/17 06:22:25;;;;;;;16.73;1.75;;;10.30;99.90;;;;;;5038540;28;21066;-74
2022/09/17 06:24:51;;;;;;;5.22;1.20;;;10.40;99.90;;;;;;5029460;28;20449;-75
2022/09/17 06:27:16;;;;;;;5.95;1.27;;;10.30;99.90;;;;;;5038499;28;20045;-76
2022/09/17 06:29:42;;;;;;;5.15;1.20;;;10.30;99.90;;;;;;5036518;28;20143;-75
2022/09/17 06:32:14;;;;;;;6.50;1.60;;;10.20;99.90;;;;;;5036454;28;20120;-76
2022/09/17 06:34:40;;;;;;;8.38;1.52;;;10.30;99.90;;;;;;5026049;28;20049;-75
2022/09/17 06:37:06;;;;;;;6.80;1.40;;;10.30;99.90;;;;;;5028931;28;20055;-76
2022/09/17 06:39:32;;;;;;;14.70;1.92;;;10.30;99.90;;;;;;5027349;28;20384;-77
2022/09/17 06:41:57;;;;;;;19.90;2.35;;;10.30;99.90;;;;;;5040516;28;20041;-76
2022/09/17 06:44:23;;;;;;;9.02;3.00;;;10.30;99.90;;;;;;5026438;28;20068;-76
2022/09/17 06:46:52;;;;;;;10.30;2.55;;;10.40;99.90;;;;;;5040791;28;20129;-76
2022/09/17 06:49:18;;;;;;;32.47;3.33;;;10.40;99.90;;;;;;5047589;28;20033;-75
2022/09/17 06:51:44;;;;;;;8.30;1.92;;;10.50;99.90;;;;;;5034786;28;20098;-74
2022/09/17 06:54:10;;;;;;;8.02;1.23;;;10.40;99.90;;;;;;5033833;28;20442;-76
2022/09/17 06:56:36;;;;;;;11.63;1.95;;;10.60;99.90;;;;;;5038492;28;20124;-74
2022/09/17 06:59:02;;;;;;;10.07;1.58;;;10.60;99.90;;;;;;5027798;28;20041;-75
2022/09/17 07:01:27;;;;;;;11.30;2.10;;;10.90;99.90;;;;;;5040300;28;20037;-74
2022/09/17 07:03:53;;;;;;;11.50;1.98;;;10.90;99.90;;;;;;5040319;28;20095;-75
2022/09/17 07:06:19;;;;;;;9.68;1.83;;;11.10;99.90;;;;;;5023819;28;20072;-76
2022/09/17 07:08:46;;;;;;;10.77;1.08;;;11.20;99.90;;;;;;5009301;28;20050;-76
2022/09/17 07:11:12;;;;;;;9.55;2.08;;;11.40;99.90;;;;;;5032740;28;20041;-74
2022/09/17 07:13:38;;;;;;;20.95;1.83;;;11.40;99.90;;;;;;5026442;28;20053;-75
2022/09/17 07:16:04;;;;;;;13.45;2.80;;;11.20;99.90;;;;;;5024201;28;20465;-76
2022/09/17 07:18:30;;;;;;;7.30;1.30;;;11.20;99.90;;;;;;5032201;28;20128;-77
2022/09/17 07:20:57;;;;;;;11.27;2.38;;;11.20;99.90;;;;;;5035879;28;20121;-76
2022/09/17 07:23:24;;;;;;;9.63;1.52;;;11.50;99.90;;;;;;5034548;28;20115;-76
2022/09/17 07:25:55;;;;;;;13.68;1.70;;;11.70;99.90;;;;;;5025655;28;20100;-77
2022/09/17 07:28:21;;;;;;;10.50;2.17;;;12.00;99.90;;;;;;5027903;28;20052;-76
2022/09/17 07:30:48;;;;;;;10.88;2.33;;;12.10;99.90;;;;;;5026647;28;20044;-75
2022/09/17 07:33:16;;;;;;;8.40;2.00;;;12.40;99.90;;;;;;5036336;28;20513;-76
2022/09/17 07:35:42;;;;;;;8.95;1.98;;;12.50;99.90;;;;;;5038549;28;20049;-76
2022/09/17 07:38:07;;;;;;;9.52;1.60;;;12.30;99.90;;;;;;5046695;28;20044;-75
2022/09/17 07:40:33;;;;;;;6.32;1.30;;;11.90;99.90;;;;;;5030967;28;20077;-74
2022/09/17 07:42:59;;;;;;;6.00;1.35;;;11.60;99.90;;;;;;5046942;28;20198;-75
2022/09/17 07:45:24;;;;;;;4.40;0.82;;;11.40;99.90;;;;;;5026054;28;20094;-75
2022/09/17 07:47:50;;;;;;;9.77;1.60;;;11.30;99.90;;;;;;5046427;28;20491;-74
2022/09/17 07:50:19;;;;;;;9.32;1.80;;;11.30;99.90;;;;;;5029049;28;20041;-76
2022/09/17 07:52:46;;;;;;;10.80;1.88;;;11.50;99.90;;;;;;5024225;28;20496;-74
2022/09/17 07:55:12;;;;;;;6.03;0.50;;;11.50;99.90;;;;;;5026383;28;20049;-74
2022/09/17 07:57:39;;;;;;;6.13;0.90;;;11.30;99.90;;;;;;5024022;28;20081;-76
2022/09/17 08:00:06;;;;;;;6.40;1.23;;;11.20;99.90;;;;;;5022663;28;20115;-75
2022/09/17 08:02:32;;;;;;;14.63;1.90;;;11.30;99.90;;;;;;5025052;28;20049;-76
2022/09/17 08:04:57;;;;;;;5.75;1.38;;;11.10;99.90;;;;;;5029174;28;20079;-75
2022/09/17 08:07:23;;;;;;;7.18;1.10;;;11.20;99.90;;;;;;5035204;28;20038;-75
2022/09/17 08:09:49;;;;;;;6.68;0.63;;;11.10;99.90;;;;;;5029811;28;20052;-75
2022/09/17 08:12:17;;;;;;;7.57;0.77;;;11.10;99.90;;;;;;5033581;28;20124;-76
2022/09/17 08:14:43;;;;;;;8.32;1.00;;;11.20;99.90;;;;;;5025496;28;20045;-76
2022/09/17 08:17:08;;;;;;;11.07;2.40;;;11.30;99.90;;;;;;5036874;28;20499;-75
2022/09/17 08:19:34;;;;;;;10.45;1.90;;;11.60;99.90;;;;;;5031411;28;20129;-75
2022/09/17 08:22:00;;;;;;;9.38;1.42;;;12.10;99.90;;;;;;5043196;28;20052;-75
2022/09/17 08:24:29;;;;;;;8.65;2.00;;;12.30;99.90;;;;;;5032572;28;20046;-76
2022/09/17 08:26:54;;;;;;;6.07;1.60;;;12.20;99.90;;;;;;5036983;28;20056;-76
2022/09/17 08:29:20;;;;;;;7.63;1.75;;;12.00;99.90;;;;;;5025226;28;20077;-75
2022/09/17 08:31:45;;;;;;;6.43;1.88;;;11.70;99.90;;;;;;5018485;28;20041;-75
2022/09/17 08:34:12;;;;;;;8.38;1.95;;;11.50;99.90;;;;;;5046029;28;20045;-75
2022/09/17 08:36:38;;;;;;;4.80;0.63;;;11.40;99.90;;;;;;5038878;28;20057;-76
2022/09/17 08:39:03;;;;;;;6.30;1.30;;;11.40;99.90;;;;;;5029624;28;20028;-75
2022/09/17 08:41:50;;;;;;;8.50;1.63;;;11.30;99.90;;;;;;5031023;28;20045;-77
2022/09/17 08:44:21;;;;;;;3.42;0.93;;;11.40;99.90;;;;;;5014815;28;20405;-76
2022/09/17 08:47:12;;;;;;;8.70;1.08;;;11.80;99.90;;;;;;5035253;28;20044;-77
2022/09/17 08:49:49;;;;;;;6.15;0.93;;;11.90;99.90;;;;;;5033421;28;20056;-75
2022/09/17 08:52:36;;;;;;;4.70;0.95;;;12.00;99.90;;;;;;5044454;28;20579;-75
2022/09/17 08:55:02;;;;;;;2.78;0.50;;;12.30;99.90;;;;;;5033968;28;20133;-76
2022/09/17 08:57:30;;;;;;;9.85;1.50;;;12.20;99.90;;;;;;5028179;28;20049;-76
2022/09/17 09:00:14;;;;;;;3.78;0.55;;;12.40;99.90;;;;;;5040841;28;20118;-77
2022/09/17 09:03:03;;;;;;;5.68;0.85;;;12.60;99.90;;;;;;5026982;28;20046;-76
2022/09/17 09:05:44;;;;;;;8.32;1.75;;;12.70;99.90;;;;;;5037869;28;20291;-78
2022/09/17 09:08:32;;;;;;;8.43;2.20;;;13.10;99.90;;;;;;5025957;28;20071;-77
2022/09/17 09:11:01;;;;;;;6.35;1.55;;;13.20;99.90;;;;;;5026161;28;20886;-77
2022/09/17 09:13:45;;;;;;;8.82;1.70;;;12.80;99.90;;;;;;5022069;28;20511;-76
2022/09/17 09:16:15;;;;;;;5.45;1.30;;;12.70;99.90;;;;;;5026719;28;20052;-74
2022/09/17 09:18:42;;;;;;;8.93;2.45;;;12.80;99.90;;;;;;5026396;28;20412;-76
2022/09/17 09:21:16;;;;;;;3.45;0.73;;;12.70;99.90;;;;;;5023493;28;20134;-77
2022/09/17 09:24:05;;;;;;;4.57;0.90;;;12.50;99.90;;;;;;5020742;28;20060;-75
2022/09/17 09:27:09;;;;;;;4.65;0.80;;;12.40;99.90;;;;;;5017147;28;20068;-76
2022/09/17 09:29:45;;;;;;;20.70;1.95;;;12.30;99.90;;;;;;4938756;28;20055;-76
2022/09/17 09:32:19;;;;;;;3.80;0.45;;;12.60;99.90;;;;;;4941378;28;20409;-75
2022/09/17 09:34:47;;;;;;;8.27;1.65;;;12.80;99.90;;;;;;4979043;28;20061;-75
2022/09/17 09:37:30;;;;;;;4.80;1.35;;;12.60;99.90;;;;;;5006210;28;20125;-74
2022/09/17 09:40:05;;;;;;;4.90;0.93;;;12.30;99.90;;;;;;5038415;28;20318;-74
2022/09/17 09:42:33;;;;;;;8.90;2.83;;;12.10;99.90;;;;;;5035471;28;20383;-75
2022/09/17 09:45:03;;;;;;;6.82;1.13;;;12.10;99.90;;;;;;5022035;28;20058;-75
2022/09/17 09:47:50;;;;;;;5.20;1.08;;;12.00;99.90;;;;;;5023845;28;20056;-75
2022/09/17 09:50:31;;;;;;;7.07;1.20;;;12.30;99.90;;;;;;5028597;28;20110;-75
2022/09/17 09:52:58;;;;;;;;;;;12.60;99.90;;;;;;5018552;28;20172;-77
2022/09/17 09:55:56;;;;;;;4.88;1.13;;;12.90;99.90;;;;;;5016493;28;19928;-76
2022/09/17 09:58:38;;;;;;;6.90;1.77;;;13.20;99.90;;;;;;5007840;28;20088;-75
2022/09/17 10:01:21;;;;;;;3.55;0.80;;;13.50;99.90;;;;;;5018782;28;20057;-74
2022/09/17 10:03:48;;;;;;;9.65;1.65;;;13.50;99.90;;;;;;5018054;28;20041;-74
2022/09/17 10:06:15;;;;;;;9.15;1.05;;;13.60;99.90;;;;;;5019661;28;20041;-75
2022/09/17 10:09:01;;;;;;;7.65;0.93;;;13.80;99.90;;;;;;5028167;28;20094;-75
2022/09/17 10:11:29;;;;;;;9.02;1.45;;;14.00;99.90;;;;;;5021561;28;20474;-76
2022/09/17 10:14:23;;;;;;;5.85;1.13;;;14.00;99.90;;;;;;5030197;28;20452;-75
2022/09/17 10:16:49;;;;;;;7.72;3.30;;;14.10;99.90;;;;;;5018744;28;20128;-76
2022/09/17 10:19:24;;;;;;;6.88;1.25;;;14.30;99.90;;;;;;5032288;28;20128;-76
2022/09/17 10:21:50;;;;;;;10.80;3.28;;;14.40;99.90;;;;;;5023565;28;20084;-74
2022/09/17 10:24:27;;;;;;;5.10;1.27;;;14.40;99.90;;;;;;5023325;28;20397;-76
2022/09/17 10:27:06;;;;;;;8.68;2.10;;;14.60;99.90;;;;;;5015484;28;20041;-74
2022/09/17 10:29:32;;;;;;;7.38;0.93;;;14.90;99.90;;;;;;5015196;28;20042;-74
2022/09/17 10:31:58;;;;;;;14.65;3.50;;;14.90;99.90;;;;;;5017465;28;20034;-75
2022/09/17 10:34:26;;;;;;;9.45;1.50;;;14.60;99.90;;;;;;5025980;28;20131;-73
2022/09/17 10:36:54;;;;;;;7.95;1.00;;;14.50;99.90;;;;;;5045117;28;20044;-74
2022/09/17 10:39:26;;;;;;;8.75;2.17;;;14.50;99.90;;;;;;5037285;28;20049;-76
2022/09/17 10:41:58;;;;;;;11.75;2.67;;;14.40;99.90;;;;;;5040475;28;20075;-75
2022/09/17 10:44:35;;;;;;;5.75;1.52;;;14.50;99.90;;;;;;5030106;28;20061;-76
2022/09/17 10:47:05;;;;;;;6.65;0.65;;;14.70;99.90;;;;;;5029619;28;20095;-76
2022/09/17 10:49:37;;;;;;;5.97;1.23;;;14.70;99.90;;;;;;5032676;28;20040;-76
2022/09/17 10:52:20;;;;;;;18.35;1.60;;;14.40;99.90;;;;;;5034707;28;20439;-75
2022/09/17 10:55:04;;;;;;;7.97;1.25;;;12.70;99.90;;;;;;5022444;28;20050;-74
2022/09/17 10:58:08;;;;;;;8.80;1.33;;;11.90;99.90;;;;;;5024204;28;20072;-76
2022/09/17 11:00:56;;;;;;;10.05;2.25;;;11.70;99.90;;;;;;5021514;28;20045;-75
2022/09/17 11:04:01;;;;;;;6.43;1.65;;;11.40;99.90;;;;;;5027933;28;20045;-75
2022/09/17 11:06:48;;;;;;;4.80;0.75;;;11.30;99.90;;;;;;5025508;28;20088;-74
2022/09/17 11:09:25;;;;;;;8.23;1.00;;;11.20;99.90;;;;;;5029507;28;20087;-75
2022/09/17 11:12:15;;;;;;;8.70;1.33;;;11.20;99.90;;;;;;5020779;28;20424;-73
2022/09/17 11:15:10;;;;;;;7.80;0.90;;;10.80;99.90;;;;;;5028916;28;20123;-74
2022/09/17 11:18:11;;;;;;;10.50;1.67;;;10.90;99.90;;;;;;5030826;28;20053;-74
2022/09/17 11:21:16;;;;;;;10.30;1.35;;;11.30;99.90;;;;;;5032712;28;20052;-73
2022/09/17 11:23:57;;;;;;;2.63;0.98;;;11.00;99.90;;;;;;4962455;28;20050;-75
2022/09/17 11:26:35;;;;;;;10.15;1.35;;;11.30;99.90;;;;;;5026235;28;20205;-74
2022/09/17 11:29:19;;;;;;;9.40;1.88;;;11.60;99.90;;;;;;5030559;28;20114;-74
2022/09/17 11:31:52;;;;;;;8.45;1.55;;;11.90;99.90;;;;;;5034789;28;20419;-75
2022/09/17 11:34:31;;;;;;;8.68;2.08;;;11.70;99.90;;;;;;5028756;28;20409;-75
2022/09/17 11:37:19;;;;;;;14.30;3.08;;;11.70;99.90;;;;;;5047399;28;20044;-75
2022/09/17 11:39:59;;;;;;;25.40;2.83;;;11.50;99.90;;;;;;5039898;28;20041;-75
2022/09/17 11:42:31;;;;;;;6.43;1.23;;;11.40;99.90;;;;;;5007696;28;20404;-75
2022/09/17 11:45:28;;;;;;;4.00;1.77;;;11.70;99.90;;;;;;5038973;28;20068;-75
2022/09/17 11:48:12;;;;;;;7.80;1.58;;;11.80;99.90;;;;;;5025253;28;20060;-75
2022/09/17 11:50:56;;;;;;;14.25;3.05;;;12.40;99.90;;;;;;5026887;28;20049;-74
2022/09/17 11:53:31;;;;;;;9.30;3.53;;;12.70;99.90;;;;;;5024264;28;20492;-77
2022/09/17 11:56:01;;;;;;;15.88;2.28;;;12.70;99.90;;;;;;5026879;28;20141;-74
2022/09/17 11:58:52;;;;;;;10.10;2.42;;;12.60;99.90;;;;;;5023869;28;20452;-74
2022/09/17 12:01:26;;;;;;;;;;;12.40;99.90;;;;;;5041184;28;20048;-75
2022/09/17 12:04:33;;;;;;;18.27;3.55;;;12.60;99.90;;;;;;5031816;28;20291;-74
2022/09/17 12:07:29;;;;;;;15.60;3.35;;;13.00;99.90;;;;;;5000612;28;20053;-76
2022/09/17 12:10:02;;;;;;;15.43;3.50;;;13.20;99.90;;;;;;5002623;28;20583;-74
2022/09/17 12:12:28;;;;;;;17.08;3.42;;;13.60;99.90;;;;;;5024848;28;20049;-75
2022/09/17 12:14:59;;;;;;;14.13;3.45;;;13.90;99.90;;;;;;5037224;28;20072;-76
2022/09/17 12:17:38;;;;;;;24.70;3.92;;;14.10;99.90;;;;;;5035030;28;20479;-75
2022/09/17 12:20:10;;;;;;;11.27;2.90;;;13.90;99.90;;;;;;5014324;28;20093;-75
2022/09/17 12:22:40;;;;;;;21.90;3.00;;;13.70;99.90;;;;;;5017176;28;20045;-76
2022/09/17 12:25:11;;;;;;;10.23;1.75;;;13.50;99.90;;;;;;5025287;28;20044;-76
2022/09/17 12:28:07;;;;;;;14.35;3.35;;;13.40;99.90;;;;;;5025745;28;20087;-75
2022/09/17 12:30:48;;;;;;;8.60;2.25;;;13.30;99.90;;;;;;5025587;28;20072;-74
2022/09/17 12:33:35;;;;;;;13.75;2.30;;;13.20;99.90;;;;;;5027818;28;20031;-74
2022/09/17 12:36:10;;;;;;;10.32;2.92;;;13.10;99.90;;;;;;5033034;28;20037;-74
2022/09/17 12:38:54;;;;;;;7.57;1.63;;;13.00;99.90;;;;;;5032875;28;20045;-75
2022/09/17 12:41:49;;;;;;;13.73;1.73;;;13.20;99.90;;;;;;5025526;28;20037;-75
2022/09/17 12:44:34;;;;;;;12.00;2.63;;;13.50;99.90;;;;;;4992636;28;20045;-74
2022/09/17 12:47:39;;;;;;;13.55;2.78;;;13.70;99.90;;;;;;5036827;28;20128;-74
2022/09/17 12:50:23;;;;;;;8.75;1.90;;;13.90;99.90;;;;;;5023367;28;20088;-74
2022/09/17 12:53:03;;;;;;;16.05;2.28;;;14.10;99.90;;;;;;5023608;28;20519;-75
2022/09/17 12:55:29;;;;;;;;;;;14.30;99.90;;;;;;5035779;28;20479;-75
2022/09/17 12:58:27;;;;;;;16.33;2.45;;;14.40;99.90;;;;;;5025688;28;19929;-74
2022/09/17 13:01:32;;;;;;;13.10;3.22;;;14.40;99.90;;;;;;5021955;28;20055;-75
2022/09/17 13:04:36;;;;;;;35.42;5.00;;;14.50;99.90;;;;;;5019842;28;20047;-74
2022/09/17 13:07:03;;;;;;;25.38;3.70;;;14.20;99.90;;;;;;4998103;28;20532;-74
2022/09/17 13:09:31;;;;;;;19.55;3.53;;;14.30;99.90;;;;;;5024091;28;20060;-74
2022/09/17 13:12:11;;;;;;;6.18;1.40;;;14.40;99.90;;;;;;5023590;28;20092;-75